MV-0001 weather

Biyadoo Island
Malé Capital, Maldives

Public forecast

Using degrees Celsius for public forecast. Weather courtesy of forecast.io.

Closest aviation weather report (METAR) to Biyadoo Island

Closest report is Malé International Airport, 16.7 nm (30.9 km) NNE. Retrieved 2020/06/03 16:00 UTC (53 minutes ago):

VRMM 031600Z 21009KT 9999 FEW018 SCT270 30/25 Q1011 NOSIG

Closest aviation forecast (TAF) to Biyadoo Island

Closest forecast is Malé International Airport, 16.7 nm (30.9 km) NNE. Retrieved 2020/06/03 12:00 UTC (5 hours ago):

TAF VRMM 031100Z 0312/0418 20010KT 9999 SCT018TCU TEMPO 0313/0319 6000 -TSRA FEW018CB